Time;durP1;ratioP1;P1;durP2;ratioP2;P2;SDS_P1;SDS_P2;PMS_P1;PMS_P2;Temp;Humidity;BMP_temperature;BMP_pressure;BME280_temperature;BME280_humidity;BME280_pressure;Samples;Min_cycle;Max_cycle;Signal;HPM_P1;HPM_P2
2023/06/30 00:02:00;;;;;;;5.75;2.03;;;14.70;99.90;;;;;;4907101;29;20039;-95
2023/06/30 00:04:39;;;;;;;4.67;1.70;;;14.60;99.90;;;;;;4901530;29;20120;-95
2023/06/30 00:07:12;;;;;;;6.93;2.17;;;14.60;99.90;;;;;;4909196;29;20087;-95
2023/06/30 00:09:46;;;;;;;3.70;2.08;;;14.60;99.90;;;;;;4910185;29;20519;-96
2023/06/30 00:12:23;;;;;;;5.07;1.90;;;14.50;99.90;;;;;;4898151;29;20079;-95
2023/06/30 00:14:54;;;;;;;7.38;2.03;;;14.50;99.90;;;;;;4927939;29;20375;-96
2023/06/30 00:17:32;;;;;;;4.45;1.77;;;14.50;99.90;;;;;;4907057;29;20056;-96
2023/06/30 00:20:15;;;;;;;5.90;1.90;;;14.10;99.90;;;;;;4893958;29;20044;-95
2023/06/30 00:22:44;;;;;;;5.95;2.13;;;14.50;99.90;;;;;;4902449;29;20044;-96
2023/06/30 00:25:19;;;;;;;7.05;2.00;;;14.40;99.90;;;;;;4905847;29;20111;-95
2023/06/30 00:28:09;;;;;;;3.90;1.60;;;14.50;99.90;;;;;;4910239;29;20090;-95
2023/06/30 00:30:46;;;;;;;4.78;1.45;;;14.20;99.90;;;;;;4899937;29;20046;-96
2023/06/30 00:33:17;;;;;;;4.47;1.50;;;14.50;99.90;;;;;;4895533;29;20048;-95
2023/06/30 00:35:53;;;;;;;3.35;1.50;;;14.30;99.90;;;;;;4913149;29;20468;-95
2023/06/30 00:38:19;;;;;;;3.13;1.50;;;14.30;99.90;;;;;;4910283;29;20043;-94
2023/06/30 00:40:50;;;;;;;5.15;1.60;;;14.30;99.90;;;;;;4910227;29;20039;-95
2023/06/30 00:43:32;;;;;;;3.15;1.45;;;14.30;99.90;;;;;;4890338;29;20042;-95
2023/06/30 00:46:17;;;;;;;4.32;1.67;;;14.30;99.90;;;;;;4911100;29;20134;-95
2023/06/30 00:48:44;;;;;;;4.97;1.85;;;15.60;99.90;;;;;;4913244;29;20411;-94
2023/06/30 00:51:13;;;;;;;6.63;1.50;;;14.20;99.90;;;;;;4906470;29;20653;-95
2023/06/30 00:53:43;;;;;;;3.88;1.65;;;14.20;99.90;;;;;;4893225;29;20115;-95
2023/06/30 00:56:16;;;;;;;4.15;1.40;;;14.20;99.90;;;;;;4916476;29;20054;-96
2023/06/30 00:58:45;;;;;;;5.22;1.90;;;14.50;99.90;;;;;;4917857;29;20088;-95
2023/06/30 01:01:30;;;;;;;5.88;1.85;;;14.80;99.90;;;;;;4901978;29;20066;-96
2023/06/30 01:04:17;;;;;;;3.72;1.30;;;14.00;99.90;;;;;;4910172;29;20047;-94
2023/06/30 01:07:36;;;;;;;7.63;1.75;;;13.30;99.90;;;;;;4900695;29;20043;-93
2023/06/30 01:10:35;;;;;;;4.13;1.60;;;14.80;99.90;;;;;;4892288;29;20051;-94
2023/06/30 01:13:19;;;;;;;3.67;1.40;;;14.70;99.90;;;;;;4897718;29;20048;-94
2023/06/30 01:15:55;;;;;;;3.92;1.70;;;15.50;99.90;;;;;;4900748;29;20059;-95
2023/06/30 01:18:32;;;;;;;3.65;1.30;;;15.20;99.90;;;;;;4907498;29;20047;-95
2023/06/30 01:21:03;;;;;;;7.03;1.73;;;14.60;99.90;;;;;;4919503;29;20035;-95
2023/06/30 01:23:55;;;;;;;4.00;1.65;;;14.60;99.90;;;;;;4909713;28;20105;-96
2023/06/30 01:26:35;;;;;;;4.03;1.55;;;14.40;99.90;;;;;;4912449;29;20107;-95
2023/06/30 01:29:17;;;;;;;6.60;1.90;;;14.10;99.90;;;;;;4909340;29;20044;-95
2023/06/30 01:32:09;;;;;;;5.18;1.42;;;14.00;99.90;;;;;;4898581;29;20068;-95
2023/06/30 01:34:38;;;;;;;4.07;1.20;;;;;;;;;;4923495;29;20051;-95
2023/06/30 01:37:22;;;;;;;5.43;1.70;;;14.10;99.90;;;;;;4911939;29;20119;-95
2023/06/30 01:39:53;;;;;;;6.97;1.50;;;15.50;99.90;;;;;;4903775;29;20084;-94
2023/06/30 01:42:22;;;;;;;5.85;1.73;;;14.60;99.90;;;;;;4900781;29;20047;-95
2023/06/30 01:44:54;;;;;;;4.57;1.63;;;14.20;99.90;;;;;;4904002;29;20090;-94
2023/06/30 01:47:30;;;;;;;3.88;1.45;;;14.60;99.90;;;;;;4918973;29;20078;-95
2023/06/30 01:50:09;;;;;;;5.57;1.70;;;14.90;99.90;;;;;;4904563;29;21517;-94
2023/06/30 01:52:43;;;;;;;3.22;1.60;;;14.20;99.90;;;;;;4915909;29;20047;-94
2023/06/30 01:55:14;;;;;;;3.53;1.52;;;13.70;99.90;;;;;;4909970;29;20295;-95
2023/06/30 01:57:55;;;;;;;3.42;1.75;;;13.00;99.90;;;;;;4912615;29;20047;-95
2023/06/30 02:00:23;;;;;;;3.15;1.85;;;13.10;99.90;;;;;;4913100;29;20115;-95
2023/06/30 02:03:01;;;;;;;4.18;1.80;;;13.70;99.90;;;;;;4911173;29;20052;-96
2023/06/30 02:05:40;;;;;;;4.03;1.70;;;13.70;99.90;;;;;;4919128;29;20035;-96
2023/06/30 02:08:14;;;;;;;5.00;1.48;;;13.70;99.90;;;;;;4908017;29;20075;-95
2023/06/30 02:11:02;;;;;;;5.28;1.80;;;13.70;99.90;;;;;;4911817;29;20048;-96
2023/06/30 02:13:48;;;;;;;4.32;1.73;;;14.00;99.90;;;;;;4898804;29;20051;-95
2023/06/30 02:16:39;;;;;;;4.78;1.65;;;14.20;99.90;;;;;;4885112;29;20744;-95
2023/06/30 02:19:14;;;;;;;4.27;1.80;;;13.80;99.90;;;;;;4896201;29;20040;-95
2023/06/30 02:21:53;;;;;;;7.30;1.83;;;13.60;99.90;;;;;;4927332;29;20047;-94
2023/06/30 02:24:36;;;;;;;6.03;1.42;;;13.80;99.90;;;;;;4911650;29;20526;-94
2023/06/30 02:27:31;;;;;;;2.97;1.60;;;13.60;99.90;;;;;;4894883;29;20103;-96
2023/06/30 02:30:05;;;;;;;5.05;1.70;;;13.50;99.90;;;;;;4914736;29;20082;-96
2023/06/30 02:32:37;;;;;;;5.10;1.55;;;13.80;99.90;;;;;;4919651;29;20039;-94
2023/06/30 02:35:17;;;;;;;5.47;1.92;;;14.40;99.90;;;;;;4907485;29;20087;-96
2023/06/30 02:38:16;;;;;;;4.22;1.50;;;13.50;99.90;;;;;;4905958;29;20054;-95
2023/06/30 02:41:01;;;;;;;5.50;1.60;;;13.50;99.90;;;;;;4923295;29;20134;-95
2023/06/30 02:43:36;;;;;;;4.57;1.88;;;12.90;99.90;;;;;;4922922;29;20731;-96
2023/06/30 02:46:07;;;;;;;3.63;1.50;;;13.40;99.90;;;;;;4911801;29;20050;-94
2023/06/30 02:48:37;;;;;;;4.38;1.70;;;13.40;99.90;;;;;;4904048;29;20040;-95
2023/06/30 02:51:07;;;;;;;3.90;1.80;;;13.60;99.90;;;;;;4899699;29;20039;-96
2023/06/30 02:53:33;;;;;;;2.30;1.25;;;13.50;99.90;;;;;;4899628;29;20122;-95
2023/06/30 02:56:22;;;;;;;4.45;1.63;;;13.40;99.90;;;;;;4907084;29;20043;-94
2023/06/30 02:59:02;;;;;;;3.17;1.25;;;13.60;99.90;;;;;;4921858;29;20523;-94
2023/06/30 03:01:59;;;;;;;7.45;1.63;;;13.40;99.90;;;;;;4932114;29;20118;-95
2023/06/30 03:04:28;;;;;;;2.92;1.58;;;13.30;99.90;;;;;;4908708;29;20119;-96
2023/06/30 03:07:00;;;;;;;4.40;1.60;;;12.90;99.90;;;;;;4917053;29;20039;-96
2023/06/30 03:09:38;;;;;;;5.10;1.40;;;13.40;99.90;;;;;;4916578;29;20655;-95
2023/06/30 03:12:04;;;;;;;4.30;1.48;;;13.40;99.90;;;;;;4910927;29;20134;-94
2023/06/30 03:14:42;;;;;;;3.33;1.50;;;13.50;99.90;;;;;;4913577;29;20051;-95
2023/06/30 03:17:08;;;;;;;;;;;13.30;99.90;;;;;;4899849;29;20046;-94
2023/06/30 03:19:44;;;;;;;3.22;1.67;;;13.40;99.90;;;;;;4917355;29;20375;-95
2023/06/30 03:22:15;;;;;;;3.10;1.58;;;13.30;99.90;;;;;;4901628;29;20510;-95
2023/06/30 03:25:00;;;;;;;5.13;1.63;;;13.50;99.90;;;;;;4909077;29;20378;-95
2023/06/30 03:27:35;;;;;;;3.63;1.67;;;13.40;99.90;;;;;;4905931;29;20050;-95
2023/06/30 03:30:08;;;;;;;4.22;1.58;;;13.30;99.90;;;;;;4898482;29;20047;-96
2023/06/30 03:32:56;;;;;;;4.57;1.70;;;13.80;99.90;;;;;;4911808;29;20147;-95
2023/06/30 03:35:41;;;;;;;3.47;1.30;;;13.30;99.90;;;;;;4892167;29;20042;-95
2023/06/30 03:38:22;;;;;;;5.25;1.60;;;14.00;99.90;;;;;;4911681;29;20046;-95
2023/06/30 03:41:06;;;;;;;3.55;1.60;;;13.40;99.90;;;;;;4904553;29;20102;-95
2023/06/30 03:43:40;;;;;;;2.95;1.27;;;13.30;99.90;;;;;;4900532;29;20043;-94
2023/06/30 03:46:17;;;;;;;2.90;1.40;;;13.30;99.90;;;;;;4913816;29;20118;-95
2023/06/30 03:49:15;;;;;;;3.28;1.23;;;13.20;99.90;;;;;;4903575;29;20062;-95
2023/06/30 03:52:07;;;;;;;2.63;1.38;;;13.30;99.90;;;;;;4892734;29;20049;-96
2023/06/30 03:54:38;;;;;;;;;;;13.30;99.90;;;;;;4917418;29;20051;-95
2023/06/30 03:57:07;;;;;;;4.15;1.40;;;13.20;99.90;;;;;;4935232;29;19922;-96
2023/06/30 03:59:47;;;;;;;3.40;1.52;;;13.10;99.90;;;;;;4902748;29;20047;-95
2023/06/30 04:02:39;;;;;;;2.90;1.65;;;13.20;99.90;;;;;;4890979;29;20052;-94
2023/06/30 04:05:20;;;;;;;5.30;1.65;;;13.70;99.90;;;;;;4896536;29;20043;-95
2023/06/30 04:07:49;;;;;;;3.47;1.40;;;13.30;99.90;;;;;;4906627;29;20047;-95
2023/06/30 04:10:18;;;;;;;4.38;1.30;;;12.60;99.90;;;;;;4911965;29;20039;-95
2023/06/30 04:12:47;;;;;;;3.20;1.40;;;13.40;99.90;;;;;;4915927;29;20043;-94
2023/06/30 04:15:18;;;;;;;4.45;1.83;;;14.30;99.90;;;;;;4921265;29;20050;-95
2023/06/30 04:17:46;;;;;;;5.65;1.40;;;13.40;99.90;;;;;;4904651;28;20047;-95
2023/06/30 04:20:26;;;;;;;7.90;1.67;;;13.50;99.90;;;;;;4913599;29;20084;-96
2023/06/30 04:23:20;;;;;;;5.60;1.83;;;13.50;99.90;;;;;;4908205;29;20049;-95
2023/06/30 04:25:58;;;;;;;6.18;1.95;;;14.20;99.90;;;;;;4899575;28;20748;-95
2023/06/30 04:28:32;;;;;;;4.90;1.40;;;14.80;99.90;;;;;;4902445;29;20058;-96
2023/06/30 04:31:03;;;;;;;4.25;1.27;;;13.70;99.90;;;;;;4905217;29;20040;-95
2023/06/30 04:33:57;;;;;;;4.78;1.70;;;13.20;99.90;;;;;;4902755;29;20060;-96
2023/06/30 04:36:45;;;;;;;6.82;2.00;;;13.90;99.90;;;;;;4899852;29;20455;-95
2023/06/30 04:39:25;;;;;;;3.03;1.50;;;14.10;99.90;;;;;;4913584;29;20040;-96
2023/06/30 04:42:00;;;;;;;5.78;1.52;;;14.00;99.90;;;;;;4914785;29;20044;-96
2023/06/30 04:44:40;;;;;;;4.18;1.42;;;14.00;99.90;;;;;;4899030;29;20046;-96
2023/06/30 04:47:27;;;;;;;4.25;1.73;;;14.00;99.90;;;;;;4915724;29;20048;-95
2023/06/30 04:50:01;;;;;;;3.88;1.30;;;14.30;99.90;;;;;;4906152;29;20134;-96
2023/06/30 04:55:36;;;;;;;6.38;1.75;;;14.20;99.90;;;;;;4903347;29;20052;-95
2023/06/30 04:58:10;;;;;;;2.88;1.63;;;14.30;99.90;;;;;;4911845;29;20149;-96
2023/06/30 05:03:45;;;;;;;4.17;1.40;;;14.40;99.90;;;;;;4934064;29;20527;-95
2023/06/30 05:06:17;;;;;;;3.78;1.38;;;14.50;99.90;;;;;;4899675;29;20531;-95
2023/06/30 05:08:52;;;;;;;3.78;1.55;;;14.50;99.90;;;;;;4918157;29;20399;-95
2023/06/30 05:11:24;;;;;;;5.25;1.38;;;14.60;99.90;;;;;;4910899;29;20110;-96
2023/06/30 05:14:54;;;;;;;2.67;1.23;;;14.70;99.90;;;;;;4912615;29;20050;-96
2023/06/30 05:17:31;;;;;;;2.80;1.27;;;14.60;99.90;;;;;;4910059;29;20047;-96
2023/06/30 05:20:22;;;;;;;;;;;;;;;;;;;;;
2023/06/30 05:23:12;;;;;;;2.97;1.25;;;14.80;99.90;;;;;;4912412;29;20074;-96
2023/06/30 05:25:50;;;;;;;2.58;1.13;;;14.90;99.90;;;;;;4907442;29;20035;-95
2023/06/30 05:28:23;;;;;;;2.63;1.48;;;14.90;99.90;;;;;;4895898;29;20114;-95
2023/06/30 05:31:09;;;;;;;4.18;1.33;;;15.00;99.90;;;;;;4910975;29;20667;-96
2023/06/30 05:34:16;;;;;;;3.40;1.40;;;15.10;99.90;;;;;;4902169;29;20066;-96
2023/06/30 05:36:59;;;;;;;2.30;1.17;;;14.60;99.90;;;;;;4890133;29;20866;-96
2023/06/30 05:39:36;;;;;;;3.50;1.20;;;15.20;99.90;;;;;;4910543;29;20558;-96
2023/06/30 05:42:05;;;;;;;2.95;1.00;;;15.00;99.90;;;;;;4908506;29;20410;-95
2023/06/30 05:44:39;;;;;;;2.40;1.05;;;15.30;99.90;;;;;;4876550;29;20041;-96
2023/06/30 05:47:10;;;;;;;3.40;1.23;;;15.40;99.90;;;;;;4855625;29;20566;-95
2023/06/30 05:49:44;;;;;;;5.22;1.52;;;15.50;99.90;;;;;;4846394;29;20056;-96
2023/06/30 05:52:15;;;;;;;3.50;1.47;;;15.50;99.90;;;;;;4852182;29;20048;-95
2023/06/30 05:54:42;;;;;;;4.03;1.10;;;15.30;99.90;;;;;;4854775;29;20469;-96
2023/06/30 05:57:07;;;;;;;3.42;1.20;;;15.70;99.90;;;;;;4855421;29;20049;-92
2023/06/30 05:59:33;;;;;;;3.28;1.25;;;15.70;99.90;;;;;;4844276;29;20047;-90
2023/06/30 06:01:59;;;;;;;2.67;1.55;;;15.80;99.90;;;;;;4841139;29;20033;-93
2023/06/30 06:04:25;;;;;;;2.63;1.00;;;15.90;99.90;;;;;;4845089;29;20040;-93
2023/06/30 06:06:53;;;;;;;5.75;1.25;;;16.10;99.90;;;;;;4839767;29;20044;-96
2023/06/30 06:09:19;;;;;;;4.35;2.13;;;16.30;99.90;;;;;;4893633;29;20070;-92
2023/06/30 06:11:45;;;;;;;4.85;1.02;;;16.50;99.90;;;;;;4901072;29;20123;-92
2023/06/30 06:14:10;;;;;;;3.30;1.20;;;16.50;99.90;;;;;;4897295;29;20062;-91
2023/06/30 06:16:36;;;;;;;2.25;1.00;;;16.70;99.90;;;;;;4913955;29;20053;-91
2023/06/30 06:22:43;;;;;;;3.03;1.13;;;17.00;99.90;;;;;;4816467;29;20112;-95
2023/06/30 06:25:17;;;;;;;2.55;1.00;;;18.40;99.90;;;;;;4881204;29;20051;-94
2023/06/30 06:27:43;;;;;;;4.73;1.27;;;18.70;99.90;;;;;;4819595;29;1320744;-94
2023/06/30 06:30:32;;;;;;;3.33;1.27;;;18.50;99.90;;;;;;4854727;29;20476;-95
2023/06/30 06:32:57;;;;;;;;;;;18.20;99.90;;;;;;4885683;29;20060;-94
2023/06/30 06:35:23;;;;;;;3.75;1.20;;;17.90;99.90;;;;;;4893551;29;19974;-92
2023/06/30 06:37:49;;;;;;;5.25;1.10;;;17.70;99.90;;;;;;4868118;29;20739;-93
2023/06/30 06:40:15;;;;;;;1.35;0.70;;;17.50;99.90;;;;;;4864233;29;20123;-96
2023/06/30 06:42:41;;;;;;;2.95;1.10;;;17.30;99.90;;;;;;4879812;29;20048;-94
2023/06/30 06:45:07;;;;;;;1.73;0.82;;;17.30;99.90;;;;;;4882361;29;20040;-96
2023/06/30 06:48:10;;;;;;;3.42;1.10;;;17.20;99.90;;;;;;4883375;29;20052;-93
2023/06/30 06:51:07;;;;;;;2.53;1.08;;;17.20;99.90;;;;;;4881298;29;20052;-94
2023/06/30 06:53:34;;;;;;;5.30;0.90;;;17.40;99.90;;;;;;4889881;29;20062;-94
2023/06/30 06:56:01;;;;;;;4.43;1.02;;;17.70;99.90;;;;;;4920988;29;20125;-93
2023/06/30 06:58:29;;;;;;;;;;;18.20;99.90;;;;;;4906388;29;20924;-94
2023/06/30 07:00:55;;;;;;;3.13;1.00;;;18.80;99.90;;;;;;4908241;29;19985;-93
2023/06/30 07:03:24;;;;;;;2.97;0.70;;;19.60;99.90;;;;;;4902802;29;20114;-93
2023/06/30 07:05:50;;;;;;;3.90;0.95;;;19.60;99.90;;;;;;4897077;29;20032;-94
2023/06/30 07:08:18;;;;;;;4.63;0.85;;;19.80;99.90;;;;;;4914420;29;20039;-93
2023/06/30 07:10:48;;;;;;;4.15;1.08;;;19.90;99.90;;;;;;4917869;29;20046;-94
2023/06/30 07:13:21;;;;;;;3.78;0.70;;;19.80;99.90;;;;;;4912029;29;20384;-94
2023/06/30 07:15:48;;;;;;;2.67;0.57;;;20.00;99.90;;;;;;4915454;29;20122;-94
2023/06/30 07:18:20;;;;;;;2.78;1.02;;;20.30;99.90;;;;;;4894986;29;20046;-94
2023/06/30 07:20:52;;;;;;;2.10;0.68;;;20.20;99.90;;;;;;4904855;29;20130;-93
2023/06/30 07:23:18;;;;;;;3.15;0.73;;;20.20;99.90;;;;;;4905276;29;20122;-93
2023/06/30 07:25:44;;;;;;;4.17;0.67;;;19.90;99.90;;;;;;4910445;29;20044;-95
2023/06/30 07:28:10;;;;;;;1.73;0.57;;;19.40;99.90;;;;;;4902149;29;20047;-93
2023/06/30 07:30:36;;;;;;;1.17;0.43;;;19.00;99.90;;;;;;4913561;29;20043;-95
2023/06/30 07:33:05;;;;;;;2.33;0.60;;;18.90;99.90;;;;;;4880587;29;20471;-93
2023/06/30 07:35:33;;;;;;;1.27;0.50;;;18.80;99.90;;;;;;4903490;29;20078;-94
2023/06/30 07:37:59;;;;;;;1.90;0.60;;;18.70;99.90;;;;;;4902471;29;20075;-94
2023/06/30 07:40:25;;;;;;;1.67;0.50;;;18.50;99.90;;;;;;4902366;29;20043;-94
2023/06/30 07:42:53;;;;;;;2.28;0.50;;;18.50;99.90;;;;;;4888177;29;20039;-95
2023/06/30 07:45:19;;;;;;;3.42;0.88;;;18.60;99.90;;;;;;4891434;29;20043;-93
2023/06/30 07:47:47;;;;;;;3.30;0.60;;;18.80;99.90;;;;;;4894060;29;20091;-94
2023/06/30 07:50:15;;;;;;;3.47;0.80;;;19.30;99.90;;;;;;4903681;29;20070;-94
2023/06/30 07:52:42;;;;;;;;;;;19.70;99.90;;;;;;4913099;29;20047;-93
2023/06/30 07:55:09;;;;;;;1.55;0.60;;;19.70;99.90;;;;;;4914334;29;19918;-94
2023/06/30 07:57:35;;;;;;;1.38;0.47;;;19.50;99.90;;;;;;4919713;29;20039;-93
2023/06/30 08:00:01;;;;;;;2.22;0.47;;;19.20;99.90;;;;;;4917154;29;20645;-94
2023/06/30 08:02:27;;;;;;;2.13;0.47;;;18.80;99.90;;;;;;4912290;29;20034;-93
2023/06/30 08:04:53;;;;;;;2.92;0.63;;;19.10;99.90;;;;;;4884981;29;20046;-92
2023/06/30 08:07:19;;;;;;;0.85;0.40;;;19.20;99.90;;;;;;4887722;29;20045;-93
2023/06/30 08:10:07;;;;;;;2.15;0.52;;;19.30;99.90;;;;;;4895769;29;20410;-92
2023/06/30 08:12:33;;;;;;;1.75;0.55;;;20.00;99.90;;;;;;4920957;29;20062;-92
2023/06/30 08:15:10;;;;;;;1.15;0.43;;;19.80;99.90;;;;;;4920143;29;20122;-95
2023/06/30 08:17:35;;;;;;;2.33;0.47;;;20.20;99.90;;;;;;4915939;29;20039;-93
2023/06/30 08:20:01;;;;;;;2.72;0.50;;;20.10;99.90;;;;;;4912591;29;20059;-92
2023/06/30 08:22:27;;;;;;;1.85;0.60;;;19.90;99.90;;;;;;4908158;29;20039;-87
2023/06/30 08:24:53;;;;;;;1.33;0.40;;;19.90;99.90;;;;;;4894127;29;20050;-88
2023/06/30 08:27:19;;;;;;;3.65;0.60;;;19.80;99.90;;;;;;4891643;29;20036;-86
2023/06/30 08:29:45;;;;;;;0.93;0.50;;;20.00;99.90;;;;;;4884460;29;20092;-87
2023/06/30 08:32:11;;;;;;;4.93;0.40;;;20.20;99.90;;;;;;4891877;29;20048;-85
2023/06/30 08:34:37;;;;;;;1.97;0.60;;;20.40;99.90;;;;;;4893892;29;20049;-87
2023/06/30 08:37:03;;;;;;;1.75;0.40;;;20.30;99.90;;;;;;4907733;29;20047;-89
2023/06/30 08:39:31;;;;;;;1.58;0.55;;;20.00;99.90;;;;;;4887761;29;20472;-94
2023/06/30 08:42:07;;;;;;;1.80;0.40;;;19.70;99.90;;;;;;4906277;29;20460;-94
2023/06/30 08:44:36;;;;;;;3.17;0.68;;;19.80;99.90;;;;;;4895361;29;20122;-95
2023/06/30 08:51:06;;;;;;;2.25;0.70;;;20.90;99.90;;;;;;4878448;29;20605;-93
2023/06/30 08:53:35;;;;;;;1.20;0.50;;;20.50;99.90;;;;;;4919132;29;20075;-94
2023/06/30 09:00:09;;;;;;;;;;;;;;;;;;;;;
2023/06/30 09:06:30;;;;;;;1.08;0.43;;;20.50;99.90;;;;;;4849714;29;20040;-95
2023/06/30 09:09:21;;;;;;;1.67;0.50;;;21.10;99.90;;;;;;4904286;29;20600;-95
2023/06/30 09:11:49;;;;;;;1.73;0.40;;;20.60;99.90;;;;;;4909130;29;20046;-95
2023/06/30 09:14:19;;;;;;;2.30;0.60;;;20.00;99.90;;;;;;4911236;29;20438;-95
2023/06/30 09:17:03;;;;;;;2.53;0.40;;;19.40;99.90;;;;;;4910126;29;20705;-93
2023/06/30 09:23:22;;;;;;;;;;;;;;;;;;;;;
2023/06/30 09:26:36;;;;;;;1.30;0.50;;;20.50;99.90;;;;;;4940175;29;20468;-94
2023/06/30 09:29:56;;;;;;;3.53;0.63;;;21.00;99.90;;;;;;4893988;29;20048;-95
2023/06/30 09:33:28;;;;;;;;;;;;;;;;;;;;;
2023/06/30 09:36:00;;;;;;;1.08;0.43;;;20.00;99.90;;;;;;4920494;29;20063;-94
2023/06/30 09:38:49;;;;;;;1.25;0.40;;;19.60;99.90;;;;;;4882289;29;20052;-94
2023/06/30 09:42:14;;;;;;;1.77;0.38;;;19.20;99.90;;;;;;4907032;29;20497;-96
2023/06/30 09:44:46;;;;;;;1.10;0.43;;;19.10;99.90;;;;;;4897411;29;20104;-95
2023/06/30 09:50:44;;;;;;;1.65;0.50;;;19.90;99.90;;;;;;4910020;29;20044;-95
2023/06/30 09:56:45;;;;;;;1.83;0.40;;;20.70;99.90;;;;;;4862236;29;20043;-95
2023/06/30 10:10:43;;;;;;;1.10;0.50;;;20.90;99.90;;;;;;4812029;29;20094;-96
2023/06/30 10:14:08;;;;;;;;;;;;;;;;;;;;;
2023/06/30 10:16:56;;;;;;;2.63;0.38;;;20.80;99.90;;;;;;4846287;29;20058;-96
2023/06/30 10:20:05;;;;;;;;;;;;;;;;;;;;;
2023/06/30 10:23:06;;;;;;;;;;;;;;;;;;;;;
2023/06/30 10:25:48;;;;;;;2.53;0.50;;;20.90;99.90;;;;;;4820580;29;20053;-96
2023/06/30 10:29:51;;;;;;;;;;;;;;;;;;;;;
2023/06/30 10:36:58;;;;;;;;;;;;;;;;;;;;;
2023/06/30 10:40:05;;;;;;;3.28;0.90;;;20.70;99.90;;;;;;4786554;29;20054;-95
2023/06/30 11:02:32;;;;;;;;;;;;;;;;;;;;;
2023/06/30 11:33:17;;;;;;;;;;;;;;;;;;;;;
2023/06/30 11:36:46;;;;;;;2.13;0.70;;;20.90;99.50;;;;;;4659209;30;20117;-95
2023/06/30 11:53:27;;;;;;;2.92;0.60;;;21.10;99.80;;;;;;4748621;30;20062;-95
2023/06/30 11:55:56;;;;;;;3.10;0.70;;;21.30;98.30;;;;;;4788155;29;20050;-88
2023/06/30 11:58:22;;;;;;;1.30;0.40;;;21.60;99.40;;;;;;4824278;29;20030;-88
2023/06/30 12:00:47;;;;;;;1.42;0.50;;;21.70;99.10;;;;;;4842119;29;20132;-88
2023/06/30 12:03:19;;;;;;;1.45;0.50;;;21.90;98.90;;;;;;4880425;29;20043;-84
2023/06/30 12:05:55;;;;;;;1.42;0.50;;;22.00;98.80;;;;;;4901522;29;20047;-86
2023/06/30 12:08:21;;;;;;;1.38;0.43;;;21.90;97.10;;;;;;4899644;29;20040;-87
2023/06/30 12:10:48;;;;;;;1.80;0.50;;;22.00;96.90;;;;;;4895767;29;20047;-86
2023/06/30 12:13:14;;;;;;;0.95;0.60;;;22.00;96.30;;;;;;4881531;29;20044;-87
2023/06/30 12:15:40;;;;;;;1.45;0.60;;;22.10;95.80;;;;;;4895563;29;20435;-87
2023/06/30 12:18:06;;;;;;;0.65;0.35;;;22.10;94.60;;;;;;4880949;29;20036;-85
2023/06/30 12:20:34;;;;;;;2.33;0.70;;;22.10;94.90;;;;;;4884851;29;20067;-89
2023/06/30 12:23:01;;;;;;;2.15;0.57;;;22.00;94.60;;;;;;4914353;29;20033;-91
2023/06/30 12:25:31;;;;;;;3.13;0.70;;;21.90;93.70;;;;;;4898509;29;20674;-92
2023/06/30 12:27:57;;;;;;;1.85;0.65;;;22.00;94.10;;;;;;4901185;29;20162;-92
2023/06/30 12:30:23;;;;;;;2.22;0.65;;;22.00;94.10;;;;;;4917750;29;20143;-92
2023/06/30 12:32:58;;;;;;;3.95;0.77;;;22.00;94.80;;;;;;4901665;29;20071;-92
2023/06/30 12:35:37;;;;;;;2.17;0.85;;;21.90;94.50;;;;;;4907780;29;20079;-91
2023/06/30 12:38:08;;;;;;;1.35;0.60;;;21.90;93.80;;;;;;4923137;29;20633;-92
2023/06/30 12:40:34;;;;;;;1.63;0.60;;;21.90;93.00;;;;;;4908172;29;20043;-86
2023/06/30 12:43:00;;;;;;;1.27;0.57;;;22.00;92.60;;;;;;4915328;29;20067;-92
2023/06/30 12:45:26;;;;;;;3.25;0.68;;;21.90;93.10;;;;;;4898136;29;20078;-91
2023/06/30 12:47:52;;;;;;;1.35;0.60;;;22.00;92.90;;;;;;4897945;29;20361;-92
2023/06/30 12:50:19;;;;;;;2.25;0.60;;;22.00;93.70;;;;;;4912926;29;20055;-90
2023/06/30 12:52:45;;;;;;;;;;;21.60;92.00;;;;;;4901435;29;20372;-90
2023/06/30 12:55:11;;;;;;;1.98;0.60;;;22.10;92.70;;;;;;4912834;29;19970;-91
2023/06/30 12:57:38;;;;;;;2.60;0.55;;;22.00;92.40;;;;;;4873111;29;20419;-90
2023/06/30 13:00:09;;;;;;;2.65;0.73;;;22.40;92.50;;;;;;4891360;29;20068;-91
2023/06/30 13:02:35;;;;;;;1.63;0.70;;;21.70;91.60;;;;;;4900533;29;20040;-90
2023/06/30 13:05:01;;;;;;;1.55;0.40;;;21.60;91.40;;;;;;4895995;29;20487;-92
2023/06/30 13:07:27;;;;;;;2.58;0.60;;;21.50;91.70;;;;;;4887490;29;20488;-91
2023/06/30 13:09:52;;;;;;;1.77;0.65;;;21.60;92.10;;;;;;4906251;29;20119;-92
2023/06/30 13:12:19;;;;;;;2.85;0.85;;;21.60;91.70;;;;;;4891147;29;20058;-89
2023/06/30 13:14:45;;;;;;;2.05;0.70;;;21.50;91.30;;;;;;4894368;29;20051;-91
2023/06/30 13:17:11;;;;;;;1.63;0.73;;;21.10;91.40;;;;;;4893529;29;20035;-91
2023/06/30 13:19:37;;;;;;;2.40;0.68;;;22.30;92.80;;;;;;4899787;29;20078;-89
2023/06/30 13:22:02;;;;;;;1.50;0.70;;;21.30;91.50;;;;;;4912023;29;20543;-92
2023/06/30 13:24:28;;;;;;;1.33;0.50;;;21.40;92.00;;;;;;4905449;29;20499;-91
2023/06/30 13:26:54;;;;;;;2.13;0.80;;;21.50;92.00;;;;;;4901146;29;20492;-90
2023/06/30 13:29:20;;;;;;;2.28;0.90;;;21.50;92.00;;;;;;4897680;29;20051;-89
2023/06/30 13:31:46;;;;;;;2.08;0.82;;;21.50;91.70;;;;;;4919765;29;20039;-86
2023/06/30 13:34:19;;;;;;;2.80;0.80;;;21.40;92.00;;;;;;4924324;29;20039;-89
2023/06/30 13:36:45;;;;;;;1.10;0.65;;;21.20;92.00;;;;;;4918447;29;20173;-90
2023/06/30 13:39:11;;;;;;;2.13;0.57;;;21.10;92.20;;;;;;4905233;29;20073;-89
2023/06/30 13:41:37;;;;;;;2.13;0.80;;;21.10;92.40;;;;;;4904393;29;20050;-91
2023/06/30 13:44:03;;;;;;;1.83;0.55;;;21.10;92.00;;;;;;4890663;29;20051;-89
2023/06/30 13:46:29;;;;;;;1.47;0.73;;;21.10;92.10;;;;;;4904153;29;20062;-91
2023/06/30 13:48:55;;;;;;;1.48;0.77;;;21.10;92.20;;;;;;4920262;29;20474;-88
2023/06/30 13:51:21;;;;;;;3.50;0.70;;;21.20;92.00;;;;;;4917725;29;20150;-89
2023/06/30 13:53:47;;;;;;;4.28;0.73;;;21.20;92.10;;;;;;4910182;29;20078;-92
2023/06/30 13:56:12;;;;;;;1.90;0.85;;;21.20;91.70;;;;;;4914865;29;20058;-91
2023/06/30 13:58:38;;;;;;;1.85;0.60;;;21.10;91.70;;;;;;4897360;29;20066;-92
2023/06/30 14:01:05;;;;;;;1.67;0.60;;;21.10;91.70;;;;;;4917014;29;20419;-92
2023/06/30 14:03:31;;;;;;;2.78;0.77;;;21.10;92.20;;;;;;4900354;29;20039;-92
2023/06/30 14:05:57;;;;;;;2.33;0.70;;;21.10;92.50;;;;;;4922942;29;20035;-91
2023/06/30 14:08:23;;;;;;;3.25;0.90;;;21.10;93.00;;;;;;4905070;29;20399;-91
2023/06/30 14:10:48;;;;;;;2.53;0.80;;;21.20;93.40;;;;;;4900685;29;20517;-90
2023/06/30 14:13:14;;;;;;;1.30;0.50;;;21.20;93.40;;;;;;4909008;29;20054;-91
2023/06/30 14:15:40;;;;;;;1.83;0.50;;;21.20;93.80;;;;;;4920084;29;20562;-90
2023/06/30 14:18:06;;;;;;;1.90;0.70;;;21.40;93.50;;;;;;4910825;29;20050;-92
2023/06/30 14:20:32;;;;;;;2.25;0.70;;;21.40;93.50;;;;;;4934660;29;20395;-91
2023/06/30 14:22:58;;;;;;;1.23;0.60;;;21.40;92.90;;;;;;4910329;29;20070;-91
2023/06/30 14:25:24;;;;;;;2.40;0.77;;;21.40;92.80;;;;;;4940722;28;20035;-90
2023/06/30 14:27:52;;;;;;;1.58;0.63;;;21.60;93.10;;;;;;4927722;29;20024;-90
2023/06/30 14:30:18;;;;;;;2.75;0.60;;;21.60;92.90;;;;;;4942380;28;20058;-90
2023/06/30 14:32:44;;;;;;;0.98;0.50;;;21.60;92.40;;;;;;4938458;29;20054;-90
2023/06/30 14:35:11;;;;;;;3.28;1.05;;;21.60;92.30;;;;;;4920090;29;20027;-90
2023/06/30 14:37:37;;;;;;;2.00;0.50;;;21.60;92.20;;;;;;4896620;29;20047;-86
2023/06/30 14:40:03;;;;;;;2.47;0.60;;;21.60;91.90;;;;;;4905589;29;20110;-86
2023/06/30 14:42:28;;;;;;;2.17;0.87;;;21.70;92.10;;;;;;4916837;29;20387;-86
2023/06/30 14:44:54;;;;;;;1.40;0.40;;;21.60;92.40;;;;;;4908640;29;20067;-86
2023/06/30 14:47:20;;;;;;;1.85;0.60;;;21.60;92.60;;;;;;4894805;29;20147;-86
2023/06/30 14:49:46;;;;;;;1.30;0.75;;;21.60;93.10;;;;;;4886986;29;20039;-86
2023/06/30 14:52:12;;;;;;;1.38;0.60;;;21.60;93.10;;;;;;4898459;29;20134;-87
2023/06/30 14:54:39;;;;;;;0.82;0.63;;;21.50;93.20;;;;;;4907474;29;20166;-86
2023/06/30 14:57:05;;;;;;;1.08;0.50;;;21.60;93.20;;;;;;4911986;29;20050;-86
2023/06/30 14:59:31;;;;;;;1.75;0.80;;;21.60;93.10;;;;;;4908715;29;20039;-86
2023/06/30 15:01:57;;;;;;;1.43;0.50;;;21.60;93.50;;;;;;4903483;29;20063;-86
2023/06/30 15:04:22;;;;;;;4.15;0.77;;;21.70;93.30;;;;;;4921458;29;20406;-86
2023/06/30 15:06:48;;;;;;;2.92;0.70;;;21.80;92.70;;;;;;4900551;29;20071;-86
2023/06/30 15:09:14;;;;;;;1.73;0.73;;;21.70;92.90;;;;;;4895189;29;20495;-86
2023/06/30 15:11:39;;;;;;;1.45;0.70;;;21.70;92.70;;;;;;4918860;29;20043;-86
2023/06/30 15:14:05;;;;;;;3.88;0.73;;;21.60;92.70;;;;;;4916103;29;20043;-87
2023/06/30 15:16:31;;;;;;;2.22;0.93;;;21.60;93.00;;;;;;4886701;29;20047;-87
2023/06/30 15:18:56;;;;;;;0.95;0.63;;;21.60;93.30;;;;;;4881766;29;20102;-87
2023/06/30 15:21:22;;;;;;;1.73;0.75;;;21.60;93.40;;;;;;4879147;29;20399;-86
2023/06/30 15:23:48;;;;;;;1.48;0.70;;;21.50;93.30;;;;;;4895294;29;20043;-88
2023/06/30 15:26:14;;;;;;;1.20;0.60;;;21.50;93.10;;;;;;4900611;29;20039;-89
2023/06/30 15:28:42;;;;;;;3.70;0.80;;;21.40;93.00;;;;;;4903634;29;20062;-96